PTDAP SNIO-SNIB
Flight info
| Callsign | PTDAP |
|---|---|
| Flight time | N/A |
| Altitude | 4500 |
| Route | 1135S03905W 1149S03923W 1208S03947W |
| Aircraft | BE36/L-SDF/C |
Departure
| Time | 2026-04-20 16:21 |
|---|---|
| Airport | Cipó Airport (SNIO) |
Arrival
| Time | N/A |
|---|---|
| Airport | Itaberaba Airport (SNIB) |
| Time | Latitude | Longitude | Altitude | Speed | Heading |
|---|---|---|---|---|---|
| 2026-04-20 16:21 | -11.21999 | -38.59339 | 3021 ft | 163 kts | 237° |
| 2026-04-20 16:21 | -11.22553 | -38.60344 | 3149 ft | 163 kts | 237° |
| 2026-04-20 16:22 | -11.23109 | -38.61357 | 3271 ft | 164 kts | 237° |
| 2026-04-20 16:22 | -11.23659 | -38.62372 | 3390 ft | 164 kts | 236° |
| 2026-04-20 16:22 | -11.24215 | -38.63365 | 3500 ft | 163 kts | 238° |
| 2026-04-20 16:22 | -11.24757 | -38.64378 | 3623 ft | 163 kts | 237° |
| 2026-04-20 16:23 | -11.25303 | -38.65386 | 3737 ft | 162 kts | 237° |
| 2026-04-20 16:23 | -11.25837 | -38.66398 | 3863 ft | 162 kts | 237° |
| 2026-04-20 16:23 | -11.26374 | -38.67412 | 3982 ft | 163 kts | 238° |
| 2026-04-20 16:23 | -11.26909 | -38.68432 | 4102 ft | 164 kts | 237° |
| 2026-04-20 16:24 | -11.27455 | -38.69439 | 4200 ft | 160 kts | 237° |
| 2026-04-20 16:24 | -11.27969 | -38.70435 | 4287 ft | 158 kts | 237° |
| 2026-04-20 16:24 | -11.28481 | -38.71414 | 4336 ft | 159 kts | 237° |
| 2026-04-20 16:24 | -11.29026 | -38.72398 | 4359 ft | 160 kts | 237° |
| 2026-04-20 16:25 | -11.29578 | -38.73395 | 4375 ft | 163 kts | 237° |
| 2026-04-20 16:25 | -11.30131 | -38.74406 | 4387 ft | 164 kts | 237° |
| 2026-04-20 16:25 | -11.30704 | -38.75417 | 4387 ft | 165 kts | 235° |
| 2026-04-20 16:25 | -11.31334 | -38.76396 | 4389 ft | 165 kts | 230° |
| 2026-04-20 16:26 | -11.32005 | -38.77345 | 4393 ft | 166 kts | 229° |
| 2026-04-20 16:26 | -11.32709 | -38.78283 | 4393 ft | 167 kts | 229° |
| 2026-04-20 16:26 | -11.33411 | -38.79222 | 4392 ft | 167 kts | 229° |
| 2026-04-20 16:26 | -11.34117 | -38.80168 | 4394 ft | 168 kts | 228° |
| 2026-04-20 16:27 | -11.34815 | -38.81125 | 4408 ft | 169 kts | 228° |
| 2026-04-20 16:27 | -11.35517 | -38.82064 | 4406 ft | 169 kts | 228° |
| 2026-04-20 16:27 | -11.36243 | -38.83006 | 4385 ft | 168 kts | 228° |
| 2026-04-20 16:27 | -11.36968 | -38.83931 | 4383 ft | 167 kts | 229° |
| 2026-04-20 16:28 | -11.37673 | -38.84862 | 4376 ft | 165 kts | 229° |
| 2026-04-20 16:28 | -11.38374 | -38.85784 | 4373 ft | 164 kts | 229° |
| 2026-04-20 16:28 | -11.39096 | -38.86689 | 4374 ft | 164 kts | 228° |
| 2026-04-20 16:28 | -11.39813 | -38.87593 | 4377 ft | 164 kts | 229° |
| 2026-04-20 16:29 | -11.40525 | -38.88504 | 4383 ft | 164 kts | 227° |
| 2026-04-20 16:29 | -11.41229 | -38.89425 | 4391 ft | 164 kts | 227° |
| 2026-04-20 16:29 | -11.41915 | -38.90349 | 4401 ft | 166 kts | 227° |
| 2026-04-20 16:29 | -11.42638 | -38.91291 | 4399 ft | 167 kts | 226° |
| 2026-04-20 16:30 | -11.43347 | -38.92216 | 4401 ft | 169 kts | 228° |
| 2026-04-20 16:30 | -11.44053 | -38.93168 | 4388 ft | 168 kts | 228° |
| 2026-04-20 16:30 | -11.44760 | -38.94112 | 4390 ft | 167 kts | 228° |
| 2026-04-20 16:30 | -11.45461 | -38.95054 | 4390 ft | 167 kts | 228° |
| 2026-04-20 16:31 | -11.46166 | -38.95992 | 4393 ft | 167 kts | 228° |
| 2026-04-20 16:31 | -11.46890 | -38.96918 | 4390 ft | 167 kts | 228° |
| 2026-04-20 16:31 | -11.47609 | -38.97845 | 4381 ft | 166 kts | 228° |
| 2026-04-20 16:31 | -11.48325 | -38.98766 | 4388 ft | 165 kts | 227° |
| 2026-04-20 16:32 | -11.49046 | -38.99687 | 4397 ft | 166 kts | 228° |
| 2026-04-20 16:32 | -11.49784 | -39.00605 | 4406 ft | 168 kts | 228° |
| 2026-04-20 16:32 | -11.50526 | -39.01533 | 4412 ft | 169 kts | 228° |
| 2026-04-20 16:32 | -11.51266 | -39.02470 | 4408 ft | 169 kts | 228° |
| 2026-04-20 16:33 | -11.51996 | -39.03410 | 4409 ft | 169 kts | 227° |
| 2026-04-20 16:33 | -11.52729 | -39.04358 | 4403 ft | 170 kts | 228° |
| 2026-04-20 16:33 | -11.53455 | -39.05290 | 4407 ft | 170 kts | 227° |
| 2026-04-20 16:33 | -11.54177 | -39.06244 | 4396 ft | 170 kts | 228° |
| 2026-04-20 16:34 | -11.54898 | -39.07193 | 4386 ft | 169 kts | 228° |
| 2026-04-20 16:34 | -11.55618 | -39.08130 | 4388 ft | 168 kts | 228° |
| 2026-04-20 16:34 | -11.56332 | -39.09068 | 4384 ft | 167 kts | 228° |
| 2026-04-20 16:34 | -11.57056 | -39.09997 | 4381 ft | 167 kts | 227° |
| 2026-04-20 16:35 | -11.57772 | -39.10934 | 4384 ft | 167 kts | 228° |
| 2026-04-20 16:35 | -11.58498 | -39.11855 | 4392 ft | 166 kts | 228° |
| 2026-04-20 16:35 | -11.59217 | -39.12783 | 4389 ft | 167 kts | 228° |
| 2026-04-20 16:35 | -11.59933 | -39.13720 | 4401 ft | 168 kts | 229° |
| 2026-04-20 16:36 | -11.60662 | -39.14651 | 4393 ft | 168 kts | 228° |
| 2026-04-20 16:36 | -11.61383 | -39.15585 | 4391 ft | 167 kts | 229° |
| 2026-04-20 16:36 | -11.62100 | -39.16519 | 4395 ft | 167 kts | 229° |
| 2026-04-20 16:36 | -11.62813 | -39.17439 | 4400 ft | 168 kts | 228° |
| 2026-04-20 16:37 | -11.63537 | -39.18376 | 4408 ft | 169 kts | 227° |
| 2026-04-20 16:37 | -11.64260 | -39.19320 | 4403 ft | 169 kts | 228° |
| 2026-04-20 16:37 | -11.64977 | -39.20268 | 4403 ft | 169 kts | 228° |
| 2026-04-20 16:37 | -11.65697 | -39.21219 | 4408 ft | 169 kts | 229° |
| 2026-04-20 16:38 | -11.66431 | -39.22159 | 4402 ft | 169 kts | 228° |
| 2026-04-20 16:38 | -11.67166 | -39.23097 | 4395 ft | 169 kts | 226° |
| 2026-04-20 16:38 | -11.67889 | -39.24043 | 4394 ft | 169 kts | 227° |
| 2026-04-20 16:38 | -11.68618 | -39.24976 | 4388 ft | 168 kts | 228° |
| 2026-04-20 16:39 | -11.69352 | -39.25909 | 4380 ft | 167 kts | 228° |
| 2026-04-20 16:39 | -11.70076 | -39.26835 | 4384 ft | 166 kts | 228° |
| 2026-04-20 16:39 | -11.70796 | -39.27761 | 4402 ft | 167 kts | 229° |
| 2026-04-20 16:39 | -11.71280 | -39.28394 | 4412 ft | 169 kts | 228° |
| 2026-04-20 16:40 | -11.71993 | -39.29336 | 4422 ft | 171 kts | 227° |
| 2026-04-20 16:40 | -11.72733 | -39.30290 | 4422 ft | 172 kts | 227° |
| 2026-04-20 16:40 | -11.73462 | -39.31268 | 4415 ft | 173 kts | 228° |
| 2026-04-20 16:40 | -11.74195 | -39.32241 | 4399 ft | 173 kts | 228° |
| 2026-04-20 16:41 | -11.74921 | -39.33212 | 4397 ft | 172 kts | 228° |
| 2026-04-20 16:41 | -11.75640 | -39.34177 | 4377 ft | 170 kts | 228° |
| 2026-04-20 16:41 | -11.76361 | -39.35130 | 4387 ft | 169 kts | 229° |
| 2026-04-20 16:41 | -11.77117 | -39.36050 | 4382 ft | 168 kts | 225° |
| 2026-04-20 16:42 | -11.77887 | -39.36952 | 4391 ft | 169 kts | 225° |
| 2026-04-20 16:42 | -11.78676 | -39.37838 | 4393 ft | 169 kts | 224° |
| 2026-04-20 16:42 | -11.79473 | -39.38724 | 4390 ft | 169 kts | 224° |
| 2026-04-20 16:42 | -11.80277 | -39.39604 | 4386 ft | 169 kts | 224° |
| 2026-04-20 16:43 | -11.81076 | -39.40483 | 4393 ft | 169 kts | 224° |
| 2026-04-20 16:43 | -11.81868 | -39.41366 | 4391 ft | 168 kts | 224° |
| 2026-04-20 16:43 | -11.82657 | -39.42243 | 4377 ft | 167 kts | 224° |
| 2026-04-20 16:43 | -11.83441 | -39.43115 | 4377 ft | 166 kts | 224° |
| 2026-04-20 16:44 | -11.84217 | -39.43984 | 4375 ft | 165 kts | 224° |
| 2026-04-20 16:44 | -11.84983 | -39.44843 | 4384 ft | 166 kts | 224° |
| 2026-04-20 16:44 | -11.85761 | -39.45708 | 4372 ft | 165 kts | 224° |
| 2026-04-20 16:44 | -11.86542 | -39.46585 | 4387 ft | 165 kts | 224° |
| 2026-04-20 16:45 | -11.87315 | -39.47447 | 4389 ft | 165 kts | 224° |
| 2026-04-20 16:45 | -11.88079 | -39.48300 | 4390 ft | 165 kts | 224° |
| 2026-04-20 16:45 | -11.88850 | -39.49175 | 4393 ft | 166 kts | 225° |
| 2026-04-20 16:45 | -11.89633 | -39.50051 | 4399 ft | 167 kts | 224° |
| 2026-04-20 16:46 | -11.90415 | -39.50935 | 4379 ft | 164 kts | 224° |
| 2026-04-20 16:46 | -11.91237 | -39.51880 | 3266 ft | 188 kts | 226° |
| 2026-04-20 16:46 | -11.92178 | -39.52979 | 1660 ft | 222 kts | 224° |
| 2026-04-20 16:46 | -11.93223 | -39.53985 | 1403 ft | 188 kts | 219° |
| 2026-04-20 16:47 | -11.94094 | -39.54824 | 1319 ft | 157 kts | 220° |
| 2026-04-20 16:47 | -11.94849 | -39.55528 | 1210 ft | 136 kts | 217° |
| 2026-04-20 16:47 | -11.95444 | -39.56132 | 1056 ft | 106 kts | 223° |
| 2026-04-20 16:47 | -11.95842 | -39.56642 | 893 ft | 77 kts | 220° |
| 2026-04-20 16:48 | -11.96141 | -39.56984 | 829 ft | 42 kts | 226° |
| 2026-04-20 16:48 | -11.96187 | -39.57041 | 832 ft | 0 kts | 231° |